Etusivu
METAR-TAF:

METAR-TAF

Lentoasemat :

Edinburg, Texas, Yhdysvallat

Leveyspiiri: 26-26-31N, Pituuspiiri: 098-07-46W, korkeus merenpinnasta: 24 m

Tämänhetkinen sää

Tämä raportti tehtiin 17 minuuttia sitten, kello 04.35 UTC
Tuuli 3 kn kaakosta
Lämpötila 16°C
Kosteus 94%
Ilmanpaine 1013 hPa
Näkyvyys: 16.1 km
Hajonneita pilviä 1600 ft:n korkeudessa

METAR: KEBG 280435Z AUTO 14003KT 10SM BKN016 16/15 A2992 RMK AO2 T01560146

Aika: 22:52 (04:52 UTC)


TAF: puuttuu

Säähavainnot ja -ennusteet yli 4000 lentoasemalta (METAR- ja TAF-raportit).

Käytössä olevat sääasemat on merkitty karttaan keltaisilla ja punaisilla pisteillä.

Aseta hiiri pisteen päälle nähdäksesi sääaseman nimen.

Klikkaa sitten nähdäksesi säähavainnot ja -ennusteet.

Kartan vaihtaminen: klikkaa mustalla rastilla varustettuja vihreitä pisteitä, niin voit zoomata sisään; viivalla varustettua vihreää pistettä, niin voit zoomata ulos tai vihreitä nuolia, niin pääset viereisille kartoille.


METAR-TAF: